KSBAKHHR

Guest
Details From KSBA - Santa Barbara Mun
To KHHR - Jack Northrop Fld Hawthorne Muni
Flight Number -
Tags decoded
Created
Modified
Stats Distance 89 nm / 165 km
Max Altitude 0 ft / 0 m
Waypoints 4
Social Downloads 0
Likes 0
Share VATSIM

Download

Looking for another format? Having issues loading an existing format? Contact us
Advertisement - Login to hide

Notes

Requested: KSBA VNY SMO KHHR

Route

KSBA VNY SMO KHHR

ID Type Via Altitude (ft/m) Position (lat/lon) Dist (leg/tot) Name
O KSBA APT - 0 / 0 34.42596 / -119.84072 - / 0 nm Santa Barbara Mun
VNY VOR - 0 / 0 34.22347 / -118.49167 68 / 68 nm VAN NUYS VOR-DME
SMO VOR - 0 / 0 34.01025 / -118.45672 12 / 80 nm SANTA MONICA VOR-DME
O KHHR APT - 0 / 0 33.92286 / -118.33516 8 / 88 nm Jack Northrop Fld Hawthorne Muni

Altitude Profile

Advertisement - Login to hide

KSBA

Details ICAO KSBA (SBA)
Name Santa Barbara Mun
Region United States
Timezone America/Los_Angeles (UTC-7.0)
Stats Elevation 13 ft / 4 m (AMSL)
Location 34.426000° -119.841000°
Runways 3
Magnetic Variation 12.298° E

METAR

KSBA 190353Z AUTO 00000KT 8SM CLR 14/12 A3001 RMK AO2 SLP162 T01440122

Decode

TAF

KSBA 182340Z 1900/1924 25010KT P6SM SKC FM190200 VRB03KT P6SM SKC FM191800 22005KT P6SM SKC FM192100 26010KT P6SM SKC

Decode

Departure Runways

ID Width Length Bearing (true/mag) Surface Threshold Overrun Markings Lighting
07 151 ft / 46 m 6,037 ft / 1,840 m 88.58° / 76.28° CONCRETE 0 ft / 0 m 151 ft / 46 m PREC-APP EDGE THRESHOLD MALSR
15L 75 ft / 23 m 4,192 ft / 1,278 m 165.73° / 153.44° ASPHALT 0 ft / 0 m 0 ft / 0 m VISUAL
15R 98 ft / 30 m 4,197 ft / 1,279 m 165.70° / 153.40° ASPHALT 0 ft / 0 m 0 ft / 0 m VISUAL EDGE THRESHOLD
25 151 ft / 46 m 6,037 ft / 1,840 m 268.59° / 256.30° CONCRETE 0 ft / 0 m 991 ft / 302 m PREC-APP EDGE THRESHOLD REIL-OMNI
33L 98 ft / 30 m 4,197 ft / 1,279 m 345.70° / 333.40° ASPHALT 0 ft / 0 m 0 ft / 0 m VISUAL EDGE THRESHOLD REIL-OMNI
33R 75 ft / 23 m 4,192 ft / 1,278 m 345.74° / 333.44° ASPHALT 0 ft / 0 m 0 ft / 0 m VISUAL

KHHR

Details ICAO KHHR (HHR)
Name Jack Northrop Fld Hawthorne Muni
Region United States
Timezone America/Los_Angeles (UTC-7.0)
Stats Elevation 65 ft / 20 m (AMSL)
Location 33.922900° -118.335000°
Runways 1
Magnetic Variation 11.914° E

METAR

KHHR 190353Z 00000KT 10SM CLR 21/13 A3001 RMK AO2 SLP161 T02060133 $

Decode

TAF

Not found

Destination Runways

ID Width Length Bearing (true/mag) Surface Threshold Overrun Markings Lighting
07 98 ft / 30 m 4,961 ft / 1,512 m 86.70° / 74.78° ASPHALT 971 ft / 296 m 0 ft / 0 m APP EDGE THRESHOLD
25 98 ft / 30 m 4,961 ft / 1,512 m 266.70° / 254.79° ASPHALT 463 ft / 141 m 0 ft / 0 m APP EDGE THRESHOLD ODALS REIL-OMNI

Approach Navaids

Runway Type Ident Frequency Range Bearing (true/mag) Slope Elevation
25 OM OM - - 266.70° / 254.79 ° - 66 ft / 20 m (AMSL)
25 LOC-LOC IHHR 109.10 MHz 18 nm / 33 km 266.65° / 254.73 ° - 66 ft / 20 m (AMSL)

Popular Alternatives